sensor_id;sensor_type;location;lat;lon;timestamp;P1;durP1;ratioP1;P2;durP2;ratioP2
6386;SDS011;3226;42.162;24.756;2023-08-06T00:01:54;6.87;;;6.57;;
6386;SDS011;3226;42.162;24.756;2023-08-06T00:04:22;6.07;;;5.87;;
6386;SDS011;3226;42.162;24.756;2023-08-06T00:06:51;7.13;;;6.83;;
6386;SDS011;3226;42.162;24.756;2023-08-06T00:09:19;9.20;;;8.80;;
6386;SDS011;3226;42.162;24.756;2023-08-06T00:11:47;6.97;;;6.67;;
6386;SDS011;3226;42.162;24.756;2023-08-06T00:14:15;8.07;;;7.73;;
6386;SDS011;3226;42.162;24.756;2023-08-06T00:16:44;7.03;;;6.73;;
6386;SDS011;3226;42.162;24.756;2023-08-06T00:19:12;7.70;;;7.40;;
6386;SDS011;3226;42.162;24.756;2023-08-06T00:21:40;7.80;;;7.50;;
6386;SDS011;3226;42.162;24.756;2023-08-06T00:24:10;12.47;;;11.93;;
6386;SDS011;3226;42.162;24.756;2023-08-06T00:26:38;10.10;;;9.70;;
6386;SDS011;3226;42.162;24.756;2023-08-06T00:29:06;11.40;;;10.90;;
6386;SDS011;3226;42.162;24.756;2023-08-06T00:31:34;9.03;;;8.63;;
6386;SDS011;3226;42.162;24.756;2023-08-06T00:34:01;22.70;;;21.63;;
6386;SDS011;3226;42.162;24.756;2023-08-06T00:36:29;8.40;;;8.03;;
6386;SDS011;3226;42.162;24.756;2023-08-06T00:38:57;7.63;;;7.33;;
6386;SDS011;3226;42.162;24.756;2023-08-06T00:41:27;7.43;;;7.13;;
6386;SDS011;3226;42.162;24.756;2023-08-06T00:43:55;7.80;;;7.50;;
6386;SDS011;3226;42.162;24.756;2023-08-06T00:46:22;6.93;;;6.63;;
6386;SDS011;3226;42.162;24.756;2023-08-06T00:48:51;8.13;;;7.83;;
6386;SDS011;3226;42.162;24.756;2023-08-06T00:51:19;7.20;;;6.90;;
6386;SDS011;3226;42.162;24.756;2023-08-06T00:53:48;7.97;;;7.67;;
6386;SDS011;3226;42.162;24.756;2023-08-06T00:56:17;10.57;;;10.10;;
6386;SDS011;3226;42.162;24.756;2023-08-06T00:58:47;10.93;;;10.43;;
6386;SDS011;3226;42.162;24.756;2023-08-06T01:01:16;12.73;;;12.13;;
6386;SDS011;3226;42.162;24.756;2023-08-06T01:03:45;11.50;;;11.00;;
6386;SDS011;3226;42.162;24.756;2023-08-06T01:06:14;13.00;;;12.40;;
6386;SDS011;3226;42.162;24.756;2023-08-06T01:08:48;20.43;;;19.53;;
6386;SDS011;3226;42.162;24.756;2023-08-06T01:11:25;16.47;;;15.73;;
6386;SDS011;3226;42.162;24.756;2023-08-06T01:14:02;7.80;;;7.50;;
6386;SDS011;3226;42.162;24.756;2023-08-06T01:16:43;7.10;;;6.80;;
6386;SDS011;3226;42.162;24.756;2023-08-06T01:19:15;8.70;;;8.30;;
6386;SDS011;3226;42.162;24.756;2023-08-06T01:21:45;14.37;;;13.73;;
6386;SDS011;3226;42.162;24.756;2023-08-06T01:24:13;15.53;;;14.83;;
6386;SDS011;3226;42.162;24.756;2023-08-06T01:26:48;7.97;;;7.68;;
6386;SDS011;3226;42.162;24.756;2023-08-06T01:29:22;7.03;;;6.73;;
6386;SDS011;3226;42.162;24.756;2023-08-06T01:31:53;8.87;;;8.47;;
6386;SDS011;3226;42.162;24.756;2023-08-06T01:34:23;11.20;;;10.70;;
6386;SDS011;3226;42.162;24.756;2023-08-06T01:36:56;12.27;;;11.77;;
6386;SDS011;3226;42.162;24.756;2023-08-06T01:39:25;9.37;;;8.97;;
6386;SDS011;3226;42.162;24.756;2023-08-06T01:41:53;6.73;;;6.43;;
6386;SDS011;3226;42.162;24.756;2023-08-06T01:44:21;7.43;;;7.13;;
6386;SDS011;3226;42.162;24.756;2023-08-06T01:46:49;11.87;;;11.37;;
6386;SDS011;3226;42.162;24.756;2023-08-06T01:49:17;19.83;;;18.93;;
6386;SDS011;3226;42.162;24.756;2023-08-06T01:51:45;23.50;;;22.43;;
6386;SDS011;3226;42.162;24.756;2023-08-06T01:54:14;27.13;;;25.87;;
6386;SDS011;3226;42.162;24.756;2023-08-06T01:56:42;22.57;;;21.57;;
6386;SDS011;3226;42.162;24.756;2023-08-06T01:59:10;13.70;;;13.10;;
6386;SDS011;3226;42.162;24.756;2023-08-06T02:01:38;8.03;;;7.73;;
6386;SDS011;3226;42.162;24.756;2023-08-06T02:04:06;12.13;;;11.63;;
6386;SDS011;3226;42.162;24.756;2023-08-06T02:06:34;11.10;;;10.60;;
6386;SDS011;3226;42.162;24.756;2023-08-06T02:09:02;7.37;;;7.07;;
6386;SDS011;3226;42.162;24.756;2023-08-06T02:11:31;6.83;;;6.53;;
6386;SDS011;3226;42.162;24.756;2023-08-06T02:13:59;7.10;;;6.80;;
6386;SDS011;3226;42.162;24.756;2023-08-06T02:16:27;6.60;;;6.30;;
6386;SDS011;3226;42.162;24.756;2023-08-06T02:18:55;6.43;;;6.20;;
6386;SDS011;3226;42.162;24.756;2023-08-06T02:21:23;5.93;;;5.70;;
6386;SDS011;3226;42.162;24.756;2023-08-06T02:23:51;9.57;;;9.17;;
6386;SDS011;3226;42.162;24.756;2023-08-06T02:26:19;8.53;;;8.20;;
6386;SDS011;3226;42.162;24.756;2023-08-06T02:28:48;11.17;;;10.70;;
6386;SDS011;3226;42.162;24.756;2023-08-06T02:31:16;13.73;;;13.10;;
6386;SDS011;3226;42.162;24.756;2023-08-06T02:33:44;12.33;;;11.80;;
6386;SDS011;3226;42.162;24.756;2023-08-06T02:36:12;9.57;;;9.13;;
6386;SDS011;3226;42.162;24.756;2023-08-06T02:38:40;9.80;;;9.40;;
6386;SDS011;3226;42.162;24.756;2023-08-06T02:41:08;7.87;;;7.57;;
6386;SDS011;3226;42.162;24.756;2023-08-06T02:43:36;9.60;;;9.20;;
6386;SDS011;3226;42.162;24.756;2023-08-06T02:46:05;8.97;;;8.57;;
6386;SDS011;3226;42.162;24.756;2023-08-06T02:48:33;7.97;;;7.67;;
6386;SDS011;3226;42.162;24.756;2023-08-06T02:51:01;7.70;;;7.40;;
6386;SDS011;3226;42.162;24.756;2023-08-06T02:53:29;6.43;;;6.13;;
6386;SDS011;3226;42.162;24.756;2023-08-06T02:55:58;9.80;;;9.40;;
6386;SDS011;3226;42.162;24.756;2023-08-06T02:58:26;7.43;;;7.13;;
6386;SDS011;3226;42.162;24.756;2023-08-06T03:01:00;7.77;;;7.47;;
6386;SDS011;3226;42.162;24.756;2023-08-06T03:03:31;8.47;;;8.07;;
6386;SDS011;3226;42.162;24.756;2023-08-06T03:05:59;15.17;;;14.47;;
6386;SDS011;3226;42.162;24.756;2023-08-06T03:08:27;18.93;;;18.07;;
6386;SDS011;3226;42.162;24.756;2023-08-06T03:10:56;16.57;;;15.83;;
6386;SDS011;3226;42.162;24.756;2023-08-06T03:13:24;18.07;;;17.17;;
6386;SDS011;3226;42.162;24.756;2023-08-06T03:15:52;18.17;;;17.33;;
6386;SDS011;3226;42.162;24.756;2023-08-06T03:18:21;21.17;;;20.20;;
6386;SDS011;3226;42.162;24.756;2023-08-06T03:20:51;10.07;;;9.63;;
6386;SDS011;3226;42.162;24.756;2023-08-06T03:23:19;7.30;;;7.00;;
6386;SDS011;3226;42.162;24.756;2023-08-06T03:25:47;7.13;;;6.83;;
6386;SDS011;3226;42.162;24.756;2023-08-06T03:28:15;7.03;;;6.73;;
6386;SDS011;3226;42.162;24.756;2023-08-06T03:30:43;8.20;;;7.90;;
6386;SDS011;3226;42.162;24.756;2023-08-06T03:33:11;8.07;;;7.77;;
6386;SDS011;3226;42.162;24.756;2023-08-06T03:35:39;13.43;;;12.83;;
6386;SDS011;3226;42.162;24.756;2023-08-06T03:38:08;10.73;;;10.27;;
6386;SDS011;3226;42.162;24.756;2023-08-06T03:40:36;9.30;;;8.90;;
6386;SDS011;3226;42.162;24.756;2023-08-06T03:43:04;7.20;;;6.90;;
6386;SDS011;3226;42.162;24.756;2023-08-06T03:45:32;7.30;;;7.00;;
6386;SDS011;3226;42.162;24.756;2023-08-06T03:48:00;7.63;;;7.33;;
6386;SDS011;3226;42.162;24.756;2023-08-06T03:50:28;8.27;;;7.93;;
6386;SDS011;3226;42.162;24.756;2023-08-06T03:52:56;14.33;;;13.70;;
6386;SDS011;3226;42.162;24.756;2023-08-06T03:55:25;21.57;;;20.57;;
6386;SDS011;3226;42.162;24.756;2023-08-06T03:57:53;25.30;;;24.10;;
6386;SDS011;3226;42.162;24.756;2023-08-06T04:00:21;29.83;;;28.43;;
6386;SDS011;3226;42.162;24.756;2023-08-06T04:02:49;30.37;;;28.97;;
6386;SDS011;3226;42.162;24.756;2023-08-06T04:05:18;32.70;;;31.17;;
6386;SDS011;3226;42.162;24.756;2023-08-06T04:07:45;35.77;;;34.07;;
6386;SDS011;3226;42.162;24.756;2023-08-06T04:10:13;34.60;;;32.93;;
6386;SDS011;3226;42.162;24.756;2023-08-06T04:12:43;34.57;;;32.97;;
6386;SDS011;3226;42.162;24.756;2023-08-06T04:15:11;33.17;;;31.60;;
6386;SDS011;3226;42.162;24.756;2023-08-06T04:17:39;34.23;;;32.63;;
6386;SDS011;3226;42.162;24.756;2023-08-06T04:20:07;34.23;;;32.63;;
6386;SDS011;3226;42.162;24.756;2023-08-06T04:22:36;31.17;;;29.70;;
6386;SDS011;3226;42.162;24.756;2023-08-06T04:25:04;25.20;;;24.00;;
6386;SDS011;3226;42.162;24.756;2023-08-06T04:27:33;19.87;;;18.97;;
6386;SDS011;3226;42.162;24.756;2023-08-06T04:30:02;11.13;;;10.63;;
6386;SDS011;3226;42.162;24.756;2023-08-06T04:32:34;15.93;;;15.20;;
6386;SDS011;3226;42.162;24.756;2023-08-06T04:35:02;22.57;;;21.53;;
6386;SDS011;3226;42.162;24.756;2023-08-06T04:37:30;42.13;;;39.97;;
6386;SDS011;3226;42.162;24.756;2023-08-06T04:39:58;40.27;;;38.37;;
6386;SDS011;3226;42.162;24.756;2023-08-06T04:42:26;29.27;;;27.90;;
6386;SDS011;3226;42.162;24.756;2023-08-06T04:44:54;19.53;;;18.63;;
6386;SDS011;3226;42.162;24.756;2023-08-06T04:47:23;9.13;;;8.73;;
6386;SDS011;3226;42.162;24.756;2023-08-06T04:49:52;14.00;;;13.40;;
6386;SDS011;3226;42.162;24.756;2023-08-06T04:52:20;14.60;;;13.97;;
6386;SDS011;3226;42.162;24.756;2023-08-06T04:54:48;13.27;;;12.67;;
6386;SDS011;3226;42.162;24.756;2023-08-06T04:57:16;15.40;;;14.70;;
6386;SDS011;3226;42.162;24.756;2023-08-06T04:59:44;14.63;;;13.97;;
6386;SDS011;3226;42.162;24.756;2023-08-06T05:02:12;17.10;;;16.30;;
6386;SDS011;3226;42.162;24.756;2023-08-06T05:04:41;11.53;;;11.03;;
6386;SDS011;3226;42.162;24.756;2023-08-06T05:07:10;12.17;;;11.57;;
6386;SDS011;3226;42.162;24.756;2023-08-06T05:09:38;9.97;;;9.57;;
6386;SDS011;3226;42.162;24.756;2023-08-06T05:12:06;9.57;;;9.17;;
6386;SDS011;3226;42.162;24.756;2023-08-06T05:14:35;9.27;;;8.87;;
6386;SDS011;3226;42.162;24.756;2023-08-06T05:17:03;8.33;;;8.00;;
6386;SDS011;3226;42.162;24.756;2023-08-06T05:19:31;7.60;;;7.30;;
6386;SDS011;3226;42.162;24.756;2023-08-06T05:22:00;7.27;;;6.97;;
6386;SDS011;3226;42.162;24.756;2023-08-06T05:24:28;8.50;;;8.10;;
6386;SDS011;3226;42.162;24.756;2023-08-06T05:26:56;7.30;;;7.00;;
6386;SDS011;3226;42.162;24.756;2023-08-06T05:29:24;7.37;;;7.07;;
6386;SDS011;3226;42.162;24.756;2023-08-06T05:31:53;7.10;;;6.80;;
6386;SDS011;3226;42.162;24.756;2023-08-06T05:34:22;8.70;;;8.30;;
6386;SDS011;3226;42.162;24.756;2023-08-06T05:36:50;10.57;;;10.10;;
6386;SDS011;3226;42.162;24.756;2023-08-06T05:39:20;14.57;;;13.90;;
6386;SDS011;3226;42.162;24.756;2023-08-06T05:41:48;9.73;;;9.33;;
6386;SDS011;3226;42.162;24.756;2023-08-06T05:44:17;5.90;;;5.70;;
6386;SDS011;3226;42.162;24.756;2023-08-06T05:46:45;7.43;;;7.13;;
6386;SDS011;3226;42.162;24.756;2023-08-06T05:49:13;12.90;;;12.30;;
6386;SDS011;3226;42.162;24.756;2023-08-06T05:51:41;20.87;;;19.90;;
6386;SDS011;3226;42.162;24.756;2023-08-06T05:54:09;24.40;;;23.30;;
6386;SDS011;3226;42.162;24.756;2023-08-06T05:56:39;16.00;;;15.30;;
6386;SDS011;3226;42.162;24.756;2023-08-06T05:59:07;9.93;;;9.53;;
6386;SDS011;3226;42.162;24.756;2023-08-06T06:01:35;7.97;;;7.63;;
6386;SDS011;3226;42.162;24.756;2023-08-06T06:04:03;16.73;;;16.00;;
6386;SDS011;3226;42.162;24.756;2023-08-06T06:06:31;18.97;;;17.97;;
6386;SDS011;3226;42.162;24.756;2023-08-06T06:08:59;10.23;;;9.83;;
6386;SDS011;3226;42.162;24.756;2023-08-06T06:11:27;18.40;;;17.60;;
6386;SDS011;3226;42.162;24.756;2023-08-06T06:13:56;8.73;;;8.33;;
6386;SDS011;3226;42.162;24.756;2023-08-06T06:16:24;7.27;;;6.97;;
6386;SDS011;3226;42.162;24.756;2023-08-06T06:18:52;31.43;;;29.93;;
6386;SDS011;3226;42.162;24.756;2023-08-06T06:21:21;30.43;;;29.00;;
6386;SDS011;3226;42.162;24.756;2023-08-06T06:23:49;12.10;;;11.57;;
6386;SDS011;3226;42.162;24.756;2023-08-06T06:26:17;29.07;;;27.67;;
6386;SDS011;3226;42.162;24.756;2023-08-06T06:28:46;9.50;;;9.10;;
6386;SDS011;3226;42.162;24.756;2023-08-06T06:31:15;19.67;;;18.77;;
6386;SDS011;3226;42.162;24.756;2023-08-06T06:33:43;16.30;;;15.57;;
6386;SDS011;3226;42.162;24.756;2023-08-06T06:36:11;12.93;;;12.33;;
6386;SDS011;3226;42.162;24.756;2023-08-06T06:38:39;14.77;;;14.07;;
6386;SDS011;3226;42.162;24.756;2023-08-06T06:41:07;15.93;;;15.20;;
6386;SDS011;3226;42.162;24.756;2023-08-06T06:43:35;19.13;;;18.23;;
6386;SDS011;3226;42.162;24.756;2023-08-06T06:46:04;47.60;;;45.30;;
6386;SDS011;3226;42.162;24.756;2023-08-06T06:48:33;25.57;;;24.37;;
6386;SDS011;3226;42.162;24.756;2023-08-06T06:51:01;12.13;;;11.53;;
6386;SDS011;3226;42.162;24.756;2023-08-06T06:53:29;8.17;;;7.87;;
6386;SDS011;3226;42.162;24.756;2023-08-06T06:56:01;7.90;;;7.60;;
6386;SDS011;3226;42.162;24.756;2023-08-06T06:58:30;7.03;;;6.73;;
6386;SDS011;3226;42.162;24.756;2023-08-06T07:00:59;7.07;;;6.77;;
6386;SDS011;3226;42.162;24.756;2023-08-06T07:03:27;7.93;;;7.63;;
6386;SDS011;3226;42.162;24.756;2023-08-06T07:05:58;7.73;;;7.43;;
6386;SDS011;3226;42.162;24.756;2023-08-06T07:08:26;9.47;;;9.07;;
6386;SDS011;3226;42.162;24.756;2023-08-06T07:10:59;7.67;;;7.37;;
6386;SDS011;3226;42.162;24.756;2023-08-06T07:13:28;13.23;;;12.63;;
6386;SDS011;3226;42.162;24.756;2023-08-06T07:15:56;7.30;;;7.00;;
6386;SDS011;3226;42.162;24.756;2023-08-06T07:18:25;6.90;;;6.60;;
6386;SDS011;3226;42.162;24.756;2023-08-06T07:20:53;11.13;;;10.63;;
6386;SDS011;3226;42.162;24.756;2023-08-06T07:23:23;7.40;;;7.10;;
6386;SDS011;3226;42.162;24.756;2023-08-06T07:25:52;12.43;;;11.83;;
6386;SDS011;3226;42.162;24.756;2023-08-06T07:28:20;6.50;;;6.20;;
6386;SDS011;3226;42.162;24.756;2023-08-06T07:30:48;8.00;;;7.70;;
6386;SDS011;3226;42.162;24.756;2023-08-06T07:33:16;13.70;;;13.10;;
6386;SDS011;3226;42.162;24.756;2023-08-06T07:35:44;14.47;;;13.87;;
6386;SDS011;3226;42.162;24.756;2023-08-06T07:38:12;8.50;;;8.10;;
6386;SDS011;3226;42.162;24.756;2023-08-06T07:40:42;8.23;;;7.90;;
6386;SDS011;3226;42.162;24.756;2023-08-06T07:43:10;8.57;;;8.17;;
6386;SDS011;3226;42.162;24.756;2023-08-06T07:45:38;7.47;;;7.17;;
6386;SDS011;3226;42.162;24.756;2023-08-06T07:48:06;8.37;;;7.97;;
6386;SDS011;3226;42.162;24.756;2023-08-06T07:50:34;7.47;;;7.17;;
6386;SDS011;3226;42.162;24.756;2023-08-06T07:53:02;7.27;;;6.97;;
6386;SDS011;3226;42.162;24.756;2023-08-06T07:55:30;18.07;;;17.17;;
6386;SDS011;3226;42.162;24.756;2023-08-06T07:57:59;12.90;;;12.30;;
6386;SDS011;3226;42.162;24.756;2023-08-06T08:00:27;14.47;;;13.80;;
6386;SDS011;3226;42.162;24.756;2023-08-06T08:02:55;13.80;;;13.20;;
6386;SDS011;3226;42.162;24.756;2023-08-06T08:05:23;9.47;;;9.07;;
6386;SDS011;3226;42.162;24.756;2023-08-06T08:07:51;8.77;;;8.37;;
6386;SDS011;3226;42.162;24.756;2023-08-06T08:10:19;8.00;;;7.70;;
6386;SDS011;3226;42.162;24.756;2023-08-06T08:12:47;8.77;;;8.37;;
6386;SDS011;3226;42.162;24.756;2023-08-06T08:15:17;8.07;;;7.77;;
6386;SDS011;3226;42.162;24.756;2023-08-06T08:17:45;8.07;;;7.77;;
6386;SDS011;3226;42.162;24.756;2023-08-06T08:20:15;11.13;;;10.63;;
6386;SDS011;3226;42.162;24.756;2023-08-06T08:22:44;7.33;;;7.03;;
6386;SDS011;3226;42.162;24.756;2023-08-06T08:25:12;7.97;;;7.67;;
6386;SDS011;3226;42.162;24.756;2023-08-06T08:27:40;7.37;;;7.07;;
6386;SDS011;3226;42.162;24.756;2023-08-06T08:30:08;7.90;;;7.60;;
6386;SDS011;3226;42.162;24.756;2023-08-06T08:32:38;9.00;;;8.50;;
6386;SDS011;3226;42.162;24.756;2023-08-06T08:35:06;10.00;;;9.60;;
6386;SDS011;3226;42.162;24.756;2023-08-06T08:37:34;7.77;;;7.47;;
6386;SDS011;3226;42.162;24.756;2023-08-06T08:40:03;7.77;;;7.47;;
6386;SDS011;3226;42.162;24.756;2023-08-06T08:42:32;9.73;;;9.33;;
6386;SDS011;3226;42.162;24.756;2023-08-06T08:45:00;14.27;;;13.63;;
6386;SDS011;3226;42.162;24.756;2023-08-06T08:47:29;16.77;;;16.00;;
6386;SDS011;3226;42.162;24.756;2023-08-06T08:50:00;18.77;;;17.90;;
6386;SDS011;3226;42.162;24.756;2023-08-06T08:52:29;22.13;;;21.13;;
6386;SDS011;3226;42.162;24.756;2023-08-06T08:54:59;15.73;;;15.03;;
6386;SDS011;3226;42.162;24.756;2023-08-06T08:57:29;12.33;;;11.83;;
6386;SDS011;3226;42.162;24.756;2023-08-06T08:59:57;11.27;;;10.77;;
6386;SDS011;3226;42.162;24.756;2023-08-06T09:02:25;7.87;;;7.57;;
6386;SDS011;3226;42.162;24.756;2023-08-06T09:04:57;6.17;;;5.97;;
6386;SDS011;3226;42.162;24.756;2023-08-06T09:07:31;6.17;;;5.97;;
6386;SDS011;3226;42.162;24.756;2023-08-06T09:10:02;7.27;;;6.97;;
6386;SDS011;3226;42.162;24.756;2023-08-06T09:12:31;6.73;;;6.43;;
6386;SDS011;3226;42.162;24.756;2023-08-06T09:14:59;6.47;;;6.17;;
6386;SDS011;3226;42.162;24.756;2023-08-06T09:17:29;6.47;;;6.17;;
6386;SDS011;3226;42.162;24.756;2023-08-06T09:19:58;7.57;;;7.27;;
6386;SDS011;3226;42.162;24.756;2023-08-06T09:22:28;7.03;;;6.73;;
6386;SDS011;3226;42.162;24.756;2023-08-06T09:25:03;7.23;;;6.93;;
6386;SDS011;3226;42.162;24.756;2023-08-06T09:27:36;8.00;;;7.70;;
6386;SDS011;3226;42.162;24.756;2023-08-06T09:30:05;7.13;;;6.83;;
6386;SDS011;3226;42.162;24.756;2023-08-06T09:32:47;7.33;;;7.03;;
6386;SDS011;3226;42.162;24.756;2023-08-06T09:35:17;11.17;;;10.67;;
6386;SDS011;3226;42.162;24.756;2023-08-06T09:37:47;7.87;;;7.57;;
6386;SDS011;3226;42.162;24.756;2023-08-06T09:40:25;9.40;;;9.00;;
6386;SDS011;3226;42.162;24.756;2023-08-06T09:42:54;8.87;;;8.47;;
6386;SDS011;3226;42.162;24.756;2023-08-06T09:45:22;8.37;;;8.03;;
6386;SDS011;3226;42.162;24.756;2023-08-06T09:47:52;8.30;;;7.93;;
6386;SDS011;3226;42.162;24.756;2023-08-06T09:50:23;8.70;;;8.30;;
6386;SDS011;3226;42.162;24.756;2023-08-06T09:52:57;8.47;;;8.07;;
6386;SDS011;3226;42.162;24.756;2023-08-06T09:55:26;7.03;;;6.73;;
6386;SDS011;3226;42.162;24.756;2023-08-06T09:57:55;7.03;;;6.73;;
6386;SDS011;3226;42.162;24.756;2023-08-06T10:00:24;7.77;;;7.47;;
6386;SDS011;3226;42.162;24.756;2023-08-06T10:02:52;8.43;;;8.07;;
6386;SDS011;3226;42.162;24.756;2023-08-06T10:05:22;8.80;;;8.40;;
6386;SDS011;3226;42.162;24.756;2023-08-06T10:07:51;9.50;;;9.10;;
6386;SDS011;3226;42.162;24.756;2023-08-06T10:10:23;9.60;;;9.20;;
6386;SDS011;3226;42.162;24.756;2023-08-06T10:12:54;7.90;;;7.60;;
6386;SDS011;3226;42.162;24.756;2023-08-06T10:15:27;7.00;;;6.70;;
6386;SDS011;3226;42.162;24.756;2023-08-06T10:17:59;8.97;;;8.57;;
6386;SDS011;3226;42.162;24.756;2023-08-06T10:20:32;8.83;;;8.43;;
6386;SDS011;3226;42.162;24.756;2023-08-06T10:23:01;6.90;;;6.60;;
6386;SDS011;3226;42.162;24.756;2023-08-06T10:25:31;7.77;;;7.47;;
6386;SDS011;3226;42.162;24.756;2023-08-06T10:28:01;7.90;;;7.60;;
6386;SDS011;3226;42.162;24.756;2023-08-06T10:30:41;8.53;;;8.13;;
6386;SDS011;3226;42.162;24.756;2023-08-06T10:33:10;7.57;;;7.27;;
6386;SDS011;3226;42.162;24.756;2023-08-06T10:35:40;7.40;;;7.10;;
6386;SDS011;3226;42.162;24.756;2023-08-06T10:38:11;6.90;;;6.60;;
6386;SDS011;3226;42.162;24.756;2023-08-06T10:40:42;9.00;;;8.60;;
6386;SDS011;3226;42.162;24.756;2023-08-06T10:43:25;7.43;;;7.13;;
6386;SDS011;3226;42.162;24.756;2023-08-06T10:45:54;8.53;;;8.13;;
6386;SDS011;3226;42.162;24.756;2023-08-06T10:48:29;7.77;;;7.47;;
6386;SDS011;3226;42.162;24.756;2023-08-06T10:50:59;6.70;;;6.40;;
6386;SDS011;3226;42.162;24.756;2023-08-06T10:53:29;7.33;;;7.03;;
6386;SDS011;3226;42.162;24.756;2023-08-06T10:56:01;8.53;;;8.13;;
6386;SDS011;3226;42.162;24.756;2023-08-06T10:58:32;8.67;;;8.27;;
6386;SDS011;3226;42.162;24.756;2023-08-06T11:01:01;8.93;;;8.53;;
6386;SDS011;3226;42.162;24.756;2023-08-06T11:03:29;7.60;;;7.30;;
6386;SDS011;3226;42.162;24.756;2023-08-06T11:05:57;7.67;;;7.37;;
6386;SDS011;3226;42.162;24.756;2023-08-06T11:08:25;8.13;;;7.83;;
6386;SDS011;3226;42.162;24.756;2023-08-06T11:10:54;8.80;;;8.40;;
6386;SDS011;3226;42.162;24.756;2023-08-06T11:13:30;9.07;;;8.67;;
6386;SDS011;3226;42.162;24.756;2023-08-06T11:15:59;8.80;;;8.40;;
6386;SDS011;3226;42.162;24.756;2023-08-06T11:18:28;8.27;;;7.87;;
6386;SDS011;3226;42.162;24.756;2023-08-06T11:20:58;8.87;;;8.47;;
6386;SDS011;3226;42.162;24.756;2023-08-06T11:23:26;8.57;;;8.17;;
6386;SDS011;3226;42.162;24.756;2023-08-06T11:25:56;7.97;;;7.67;;
6386;SDS011;3226;42.162;24.756;2023-08-06T11:28:24;8.40;;;8.07;;
6386;SDS011;3226;42.162;24.756;2023-08-06T11:30:54;7.80;;;7.50;;
6386;SDS011;3226;42.162;24.756;2023-08-06T11:33:23;7.17;;;6.87;;
6386;SDS011;3226;42.162;24.756;2023-08-06T11:35:53;8.07;;;7.70;;
6386;SDS011;3226;42.162;24.756;2023-08-06T11:38:24;7.60;;;7.30;;
6386;SDS011;3226;42.162;24.756;2023-08-06T11:40:52;8.00;;;7.70;;
6386;SDS011;3226;42.162;24.756;2023-08-06T11:43:20;7.30;;;7.00;;
6386;SDS011;3226;42.162;24.756;2023-08-06T11:45:49;9.57;;;9.17;;
6386;SDS011;3226;42.162;24.756;2023-08-06T11:48:20;11.23;;;10.73;;
6386;SDS011;3226;42.162;24.756;2023-08-06T11:50:48;8.43;;;8.07;;
6386;SDS011;3226;42.162;24.756;2023-08-06T11:53:16;7.73;;;7.43;;
6386;SDS011;3226;42.162;24.756;2023-08-06T11:55:44;6.90;;;6.60;;
6386;SDS011;3226;42.162;24.756;2023-08-06T11:58:12;8.63;;;8.23;;
6386;SDS011;3226;42.162;24.756;2023-08-06T12:00:42;8.07;;;7.77;;
6386;SDS011;3226;42.162;24.756;2023-08-06T12:03:10;9.47;;;9.07;;
6386;SDS011;3226;42.162;24.756;2023-08-06T12:05:39;9.33;;;8.93;;
6386;SDS011;3226;42.162;24.756;2023-08-06T12:08:08;9.20;;;8.80;;
6386;SDS011;3226;42.162;24.756;2023-08-06T12:10:36;7.63;;;7.33;;
6386;SDS011;3226;42.162;24.756;2023-08-06T12:13:04;9.23;;;8.83;;
6386;SDS011;3226;42.162;24.756;2023-08-06T12:15:32;9.60;;;9.20;;
6386;SDS011;3226;42.162;24.756;2023-08-06T12:18:00;7.93;;;7.63;;
6386;SDS011;3226;42.162;24.756;2023-08-06T12:20:28;7.33;;;7.03;;
6386;SDS011;3226;42.162;24.756;2023-08-06T12:22:58;7.73;;;7.43;;
6386;SDS011;3226;42.162;24.756;2023-08-06T12:25:26;7.23;;;6.93;;
6386;SDS011;3226;42.162;24.756;2023-08-06T12:27:55;7.43;;;7.13;;
6386;SDS011;3226;42.162;24.756;2023-08-06T12:30:24;8.00;;;7.70;;
6386;SDS011;3226;42.162;24.756;2023-08-06T12:32:52;7.20;;;6.90;;
6386;SDS011;3226;42.162;24.756;2023-08-06T12:35:20;6.87;;;6.57;;
6386;SDS011;3226;42.162;24.756;2023-08-06T12:37:48;7.17;;;6.87;;
6386;SDS011;3226;42.162;24.756;2023-08-06T12:40:18;7.40;;;7.10;;
6386;SDS011;3226;42.162;24.756;2023-08-06T12:43:01;7.40;;;7.10;;
6386;SDS011;3226;42.162;24.756;2023-08-06T12:45:29;7.37;;;7.07;;
6386;SDS011;3226;42.162;24.756;2023-08-06T12:47:57;6.93;;;6.63;;
6386;SDS011;3226;42.162;24.756;2023-08-06T12:50:25;7.30;;;7.00;;
6386;SDS011;3226;42.162;24.756;2023-08-06T12:52:53;7.93;;;7.63;;
6386;SDS011;3226;42.162;24.756;2023-08-06T12:55:22;9.43;;;9.03;;
6386;SDS011;3226;42.162;24.756;2023-08-06T12:57:50;8.87;;;8.47;;
6386;SDS011;3226;42.162;24.756;2023-08-06T13:00:24;7.90;;;7.60;;
6386;SDS011;3226;42.162;24.756;2023-08-06T13:02:52;7.93;;;7.63;;
6386;SDS011;3226;42.162;24.756;2023-08-06T13:05:20;8.03;;;7.73;;
6386;SDS011;3226;42.162;24.756;2023-08-06T13:07:48;7.10;;;6.80;;
6386;SDS011;3226;42.162;24.756;2023-08-06T13:10:16;7.50;;;7.20;;
6386;SDS011;3226;42.162;24.756;2023-08-06T13:12:47;8.30;;;7.93;;
6386;SDS011;3226;42.162;24.756;2023-08-06T13:15:15;8.10;;;7.80;;
6386;SDS011;3226;42.162;24.756;2023-08-06T13:17:43;8.30;;;8.00;;
6386;SDS011;3226;42.162;24.756;2023-08-06T13:20:12;8.07;;;7.77;;
6386;SDS011;3226;42.162;24.756;2023-08-06T13:22:42;8.60;;;8.20;;
6386;SDS011;3226;42.162;24.756;2023-08-06T13:25:12;7.90;;;7.60;;
6386;SDS011;3226;42.162;24.756;2023-08-06T13:27:40;8.47;;;8.10;;
6386;SDS011;3226;42.162;24.756;2023-08-06T13:30:11;7.70;;;7.40;;
6386;SDS011;3226;42.162;24.756;2023-08-06T13:32:39;7.87;;;7.57;;
6386;SDS011;3226;42.162;24.756;2023-08-06T13:35:07;7.57;;;7.27;;
6386;SDS011;3226;42.162;24.756;2023-08-06T13:37:36;7.73;;;7.43;;
6386;SDS011;3226;42.162;24.756;2023-08-06T13:40:04;7.67;;;7.37;;
6386;SDS011;3226;42.162;24.756;2023-08-06T13:42:33;7.80;;;7.50;;
6386;SDS011;3226;42.162;24.756;2023-08-06T13:45:01;7.90;;;7.60;;
6386;SDS011;3226;42.162;24.756;2023-08-06T13:47:31;8.07;;;7.77;;
6386;SDS011;3226;42.162;24.756;2023-08-06T13:49:59;7.87;;;7.57;;
6386;SDS011;3226;42.162;24.756;2023-08-06T13:52:28;7.77;;;7.47;;
6386;SDS011;3226;42.162;24.756;2023-08-06T13:54:56;7.40;;;7.10;;
6386;SDS011;3226;42.162;24.756;2023-08-06T13:57:24;7.70;;;7.40;;
6386;SDS011;3226;42.162;24.756;2023-08-06T13:59:52;7.47;;;7.17;;
6386;SDS011;3226;42.162;24.756;2023-08-06T14:02:20;7.83;;;7.53;;
6386;SDS011;3226;42.162;24.756;2023-08-06T14:04:49;7.93;;;7.63;;
6386;SDS011;3226;42.162;24.756;2023-08-06T14:07:17;9.00;;;8.60;;
6386;SDS011;3226;42.162;24.756;2023-08-06T14:09:45;8.63;;;8.23;;
6386;SDS011;3226;42.162;24.756;2023-08-06T14:12:13;7.70;;;7.40;;
6386;SDS011;3226;42.162;24.756;2023-08-06T14:14:41;7.77;;;7.47;;
6386;SDS011;3226;42.162;24.756;2023-08-06T14:17:09;7.27;;;6.97;;
6386;SDS011;3226;42.162;24.756;2023-08-06T14:19:37;7.13;;;6.83;;
6386;SDS011;3226;42.162;24.756;2023-08-06T14:22:07;6.90;;;6.60;;
6386;SDS011;3226;42.162;24.756;2023-08-06T14:24:35;7.10;;;6.80;;
6386;SDS011;3226;42.162;24.756;2023-08-06T14:27:03;7.13;;;6.83;;
6386;SDS011;3226;42.162;24.756;2023-08-06T14:29:32;7.63;;;7.33;;
6386;SDS011;3226;42.162;24.756;2023-08-06T14:32:00;7.50;;;7.20;;
6386;SDS011;3226;42.162;24.756;2023-08-06T14:34:28;7.50;;;7.20;;
6386;SDS011;3226;42.162;24.756;2023-08-06T14:36:56;7.67;;;7.37;;
6386;SDS011;3226;42.162;24.756;2023-08-06T14:39:27;8.10;;;7.77;;
6386;SDS011;3226;42.162;24.756;2023-08-06T14:41:55;7.60;;;7.30;;
6386;SDS011;3226;42.162;24.756;2023-08-06T14:44:23;7.03;;;6.73;;
6386;SDS011;3226;42.162;24.756;2023-08-06T14:46:51;7.10;;;6.80;;
6386;SDS011;3226;42.162;24.756;2023-08-06T14:49:19;7.43;;;7.13;;
6386;SDS011;3226;42.162;24.756;2023-08-06T14:51:47;7.40;;;7.10;;
6386;SDS011;3226;42.162;24.756;2023-08-06T14:54:15;7.90;;;7.53;;
6386;SDS011;3226;42.162;24.756;2023-08-06T14:56:45;7.43;;;7.13;;
6386;SDS011;3226;42.162;24.756;2023-08-06T14:59:13;8.50;;;8.10;;
6386;SDS011;3226;42.162;24.756;2023-08-06T15:01:41;8.77;;;8.37;;
6386;SDS011;3226;42.162;24.756;2023-08-06T15:04:09;8.83;;;8.43;;